Time;durP1;ratioP1;P1;durP2;ratioP2;P2;SDS_P1;SDS_P2;PMS_P1;PMS_P2;Temp;Humidity;BMP_temperature;BMP_pressure;BME280_temperature;BME280_humidity;BME280_pressure;Samples;Min_cycle;Max_cycle;Signal;HPM_P1;HPM_P2
2023/11/06 00:01:04;;;;;;;0.70;0.70;;;22.00;38.00;;;;;;6212909;23;20405;-43
2023/11/06 00:03:30;;;;;;;1.33;0.88;;;22.00;38.00;;;;;;6214712;23;20255;-43
2023/11/06 00:05:57;;;;;;;1.10;0.80;;;22.00;38.00;;;;;;6213867;23;20253;-43
2023/11/06 00:08:25;;;;;;;2.60;0.90;;;22.00;38.00;;;;;;6210247;23;20232;-43
2023/11/06 00:10:52;;;;;;;1.90;0.90;;;22.00;38.10;;;;;;6213260;23;20182;-43
2023/11/06 00:13:19;;;;;;;1.23;1.13;;;22.00;38.10;;;;;;6210958;23;20178;-42
2023/11/06 00:15:47;;;;;;;0.80;0.80;;;22.00;38.10;;;;;;6212884;23;20626;-42
2023/11/06 00:18:13;;;;;;;2.60;0.90;;;22.00;38.10;;;;;;6213500;23;20238;-43
2023/11/06 00:20:40;;;;;;;0.77;0.77;;;22.00;38.10;;;;;;6213795;23;20546;-43
2023/11/06 00:23:07;;;;;;;1.05;1.02;;;22.00;38.10;;;;;;6214266;23;20236;-44
2023/11/06 00:25:33;;;;;;;0.85;0.70;;;22.00;38.20;;;;;;6214096;23;20178;-43
2023/11/06 00:27:59;;;;;;;0.90;0.90;;;22.00;38.10;;;;;;6212068;23;20206;-43
2023/11/06 00:30:26;;;;;;;0.90;0.90;;;22.00;38.20;;;;;;6211392;23;20260;-44
2023/11/06 00:32:53;;;;;;;1.13;1.00;;;22.00;38.20;;;;;;6212499;23;20217;-44
2023/11/06 00:35:20;;;;;;;1.35;0.73;;;22.00;38.20;;;;;;6212945;23;20178;-43
2023/11/06 00:37:47;;;;;;;3.70;1.02;;;22.00;38.30;;;;;;6212839;23;20240;-44
2023/11/06 00:40:13;;;;;;;1.58;0.90;;;22.00;38.20;;;;;;6213438;23;20260;-44
2023/11/06 00:42:40;;;;;;;2.53;0.80;;;22.00;38.30;;;;;;6213242;23;20224;-43
2023/11/06 00:45:06;;;;;;;1.80;0.95;;;22.00;38.30;;;;;;6212827;23;20180;-44
2023/11/06 00:47:33;;;;;;;0.90;0.90;;;22.00;38.30;;;;;;6212501;23;20241;-43
2023/11/06 00:49:59;;;;;;;2.05;0.93;;;22.00;38.30;;;;;;6212873;23;20260;-44
2023/11/06 00:52:26;;;;;;;2.22;0.93;;;22.00;38.30;;;;;;6210576;23;20544;-43
2023/11/06 00:54:52;;;;;;;0.80;0.80;;;22.00;38.30;;;;;;6212800;23;20205;-44
2023/11/06 00:57:18;;;;;;;1.52;0.80;;;22.00;38.30;;;;;;6212529;23;20280;-43
2023/11/06 00:59:45;;;;;;;0.90;0.90;;;22.00;38.40;;;;;;6213281;23;20232;-43
2023/11/06 01:02:11;;;;;;;1.15;1.00;;;22.00;38.40;;;;;;6212472;23;20217;-43
2023/11/06 01:04:38;;;;;;;1.17;1.05;;;22.00;38.40;;;;;;6214469;23;20174;-43
2023/11/06 01:07:05;;;;;;;0.95;0.95;;;22.00;38.40;;;;;;6211733;23;20508;-43
2023/11/06 01:09:31;;;;;;;0.70;0.70;;;22.00;38.40;;;;;;6209867;23;20228;-44
2023/11/06 01:11:58;;;;;;;0.93;0.90;;;22.00;38.40;;;;;;6212632;23;20181;-43
2023/11/06 01:14:24;;;;;;;0.80;0.80;;;22.00;38.40;;;;;;6213126;23;20209;-43
2023/11/06 01:16:53;;;;;;;0.73;0.68;;;22.00;38.40;;;;;;6211796;23;20726;-43
2023/11/06 01:19:20;;;;;;;2.60;0.90;;;22.00;38.40;;;;;;6212504;23;20177;-43
2023/11/06 01:21:46;;;;;;;1.25;0.90;;;22.00;38.40;;;;;;6212292;23;20178;-43
2023/11/06 01:24:13;;;;;;;2.58;1.13;;;22.00;38.40;;;;;;6214094;23;20178;-43
2023/11/06 01:26:42;;;;;;;1.77;1.00;;;22.00;38.40;;;;;;6210991;23;20308;-43
2023/11/06 01:29:08;;;;;;;0.82;0.80;;;22.00;38.40;;;;;;6210920;23;20579;-43
2023/11/06 01:31:35;;;;;;;1.30;0.90;;;22.00;38.40;;;;;;6211598;23;20189;-44
2023/11/06 01:34:01;;;;;;;0.80;0.80;;;22.00;38.40;;;;;;6212352;23;20728;-44
2023/11/06 01:36:29;;;;;;;0.95;0.85;;;22.00;38.50;;;;;;6210448;23;20202;-43
2023/11/06 01:38:56;;;;;;;0.70;0.70;;;22.00;38.40;;;;;;6213277;23;20178;-43
2023/11/06 01:41:22;;;;;;;0.88;0.80;;;22.00;38.40;;;;;;6212765;23;20209;-43
2023/11/06 01:43:50;;;;;;;0.70;0.70;;;22.00;38.40;;;;;;6209308;23;20197;-44
2023/11/06 01:46:20;;;;;;;0.80;0.80;;;22.00;38.50;;;;;;6211714;23;20255;-43
2023/11/06 01:48:47;;;;;;;1.13;0.82;;;22.00;38.50;;;;;;6211398;23;20277;-43
2023/11/06 01:51:13;;;;;;;1.10;0.90;;;22.00;38.50;;;;;;6213095;23;20697;-44
2023/11/06 01:53:40;;;;;;;0.95;0.93;;;22.00;38.50;;;;;;6213953;23;20541;-44
2023/11/06 01:56:07;;;;;;;0.80;0.80;;;22.00;38.50;;;;;;6212644;23;20205;-44
2023/11/06 01:58:33;;;;;;;1.58;1.13;;;22.00;38.50;;;;;;6212327;23;20209;-44
2023/11/06 02:00:59;;;;;;;1.85;1.10;;;22.00;38.50;;;;;;6211394;23;20253;-43
2023/11/06 02:03:26;;;;;;;1.20;0.70;;;22.00;38.50;;;;;;6210573;23;20677;-44
2023/11/06 02:05:52;;;;;;;0.75;0.75;;;22.00;38.60;;;;;;6212012;23;20751;-43
2023/11/06 02:08:19;;;;;;;0.98;0.98;;;22.00;38.60;;;;;;6211182;23;20280;-43
2023/11/06 02:10:45;;;;;;;1.17;0.90;;;22.00;38.60;;;;;;6212519;23;20201;-44
2023/11/06 02:13:12;;;;;;;0.80;0.80;;;22.00;38.60;;;;;;6213202;23;20178;-43
2023/11/06 02:15:39;;;;;;;0.93;0.90;;;22.00;38.60;;;;;;6213082;23;20194;-44
2023/11/06 02:18:05;;;;;;;0.80;0.73;;;22.00;38.70;;;;;;6213670;23;20253;-43
2023/11/06 02:20:32;;;;;;;0.93;0.80;;;22.00;38.60;;;;;;6214328;23;20264;-43
2023/11/06 02:22:58;;;;;;;2.42;1.00;;;22.00;38.60;;;;;;6211446;23;20217;-44
2023/11/06 02:25:25;;;;;;;0.80;0.70;;;22.00;38.60;;;;;;6214672;23;20230;-43
2023/11/06 02:27:51;;;;;;;1.45;1.05;;;22.00;38.60;;;;;;6214020;23;20237;-43
2023/11/06 02:30:18;;;;;;;1.73;0.80;;;22.00;38.60;;;;;;6213949;23;20178;-43
2023/11/06 02:32:44;;;;;;;1.95;0.75;;;22.00;38.70;;;;;;6212908;23;20231;-43
2023/11/06 02:35:11;;;;;;;0.80;0.80;;;22.00;38.60;;;;;;6215554;23;20440;-43
2023/11/06 02:37:38;;;;;;;0.80;0.80;;;22.00;38.70;;;;;;6215343;23;20645;-43
2023/11/06 02:40:06;;;;;;;0.82;0.80;;;22.00;38.70;;;;;;6212124;23;20178;-43
2023/11/06 02:42:32;;;;;;;0.80;0.80;;;22.00;38.70;;;;;;6212586;23;20190;-44
2023/11/06 02:44:59;;;;;;;1.00;1.00;;;22.00;38.80;;;;;;6213204;23;20253;-43
2023/11/06 02:47:25;;;;;;;0.85;0.80;;;22.00;38.80;;;;;;6213413;23;20202;-43
2023/11/06 02:49:52;;;;;;;1.00;0.70;;;22.00;38.70;;;;;;6215295;23;20670;-44
2023/11/06 02:52:18;;;;;;;0.70;0.70;;;22.00;38.70;;;;;;6213303;23;20261;-44
2023/11/06 02:54:45;;;;;;;1.65;0.80;;;22.00;38.80;;;;;;6213629;23;20706;-43
2023/11/06 02:57:11;;;;;;;0.93;0.70;;;22.00;38.80;;;;;;6213229;23;20263;-44
2023/11/06 02:59:38;;;;;;;0.80;0.80;;;22.00;38.80;;;;;;6212333;23;20627;-43
2023/11/06 03:02:04;;;;;;;3.05;0.85;;;22.00;38.80;;;;;;6212227;23;20570;-44
2023/11/06 03:04:32;;;;;;;0.70;0.70;;;22.00;38.90;;;;;;6213189;23;20350;-43
2023/11/06 03:06:58;;;;;;;0.80;0.80;;;22.00;38.90;;;;;;6214111;23;20194;-43
2023/11/06 03:09:25;;;;;;;0.70;0.70;;;22.00;38.90;;;;;;6214928;23;20181;-44
2023/11/06 03:11:52;;;;;;;0.73;0.70;;;22.00;38.90;;;;;;6213800;23;20669;-43
2023/11/06 03:14:19;;;;;;;0.85;0.70;;;22.00;38.90;;;;;;6212588;23;20731;-44
2023/11/06 03:16:45;;;;;;;0.80;0.80;;;22.00;38.90;;;;;;6210623;23;20259;-43
2023/11/06 03:19:12;;;;;;;1.25;0.68;;;22.00;38.90;;;;;;6213807;23;20281;-43
2023/11/06 03:21:38;;;;;;;0.70;0.70;;;22.00;38.90;;;;;;6214559;23;20208;-44
2023/11/06 03:24:05;;;;;;;0.90;0.80;;;22.00;38.90;;;;;;6213100;23;20221;-45
2023/11/06 03:26:31;;;;;;;1.27;0.70;;;22.00;38.90;;;;;;6212863;23;20240;-43
2023/11/06 03:28:57;;;;;;;1.30;0.88;;;22.00;38.90;;;;;;6214517;23;20213;-44
2023/11/06 03:31:24;;;;;;;1.33;0.80;;;22.00;38.90;;;;;;6212738;23;20182;-44
2023/11/06 03:33:50;;;;;;;1.33;0.70;;;22.00;38.90;;;;;;6211739;23;20573;-43
2023/11/06 03:36:17;;;;;;;1.00;0.70;;;22.00;38.90;;;;;;6213184;23;20229;-44
2023/11/06 03:38:43;;;;;;;1.00;1.00;;;22.00;39.00;;;;;;6214414;23;20257;-43
2023/11/06 03:41:11;;;;;;;0.70;0.70;;;22.00;39.00;;;;;;6209990;23;20249;-44
2023/11/06 03:43:38;;;;;;;0.73;0.73;;;22.00;39.00;;;;;;6213282;23;20634;-44
2023/11/06 03:46:04;;;;;;;0.80;0.70;;;22.00;39.00;;;;;;6212559;23;20584;-43
2023/11/06 03:48:31;;;;;;;0.80;0.80;;;22.00;39.00;;;;;;6212450;23;20225;-44
2023/11/06 03:50:57;;;;;;;1.55;0.70;;;22.00;39.00;;;;;;6213968;23;20209;-43
2023/11/06 03:53:24;;;;;;;1.05;0.90;;;22.00;39.00;;;;;;6214874;23;20268;-43
2023/11/06 03:55:50;;;;;;;0.60;0.60;;;22.00;39.20;;;;;;6212979;23;20670;-43
2023/11/06 03:58:17;;;;;;;0.73;0.73;;;22.00;39.20;;;;;;6210923;23;20537;-43
2023/11/06 04:00:43;;;;;;;0.70;0.70;;;22.00;39.10;;;;;;6211648;23;20253;-43
2023/11/06 04:03:09;;;;;;;1.10;0.65;;;22.00;39.10;;;;;;6213742;23;20257;-42
2023/11/06 04:05:36;;;;;;;1.45;0.80;;;22.00;39.10;;;;;;6213601;23;20259;-43
2023/11/06 04:08:03;;;;;;;0.68;0.68;;;22.00;39.00;;;;;;6213476;23;20206;-42
2023/11/06 04:10:29;;;;;;;0.75;0.75;;;22.00;39.10;;;;;;6213580;23;20213;-42
2023/11/06 04:12:57;;;;;;;0.80;0.80;;;22.00;39.10;;;;;;6213483;23;20232;-43
2023/11/06 04:15:23;;;;;;;1.17;1.08;;;22.00;39.00;;;;;;6210617;23;20807;-42
2023/11/06 04:17:50;;;;;;;1.30;0.80;;;22.00;39.00;;;;;;6211730;23;20223;-42
2023/11/06 04:20:16;;;;;;;0.90;0.90;;;22.00;39.10;;;;;;6214547;23;20177;-43
2023/11/06 04:22:43;;;;;;;2.03;0.80;;;22.00;39.00;;;;;;6213158;23;20221;-42
2023/11/06 04:25:09;;;;;;;1.77;0.82;;;22.00;39.00;;;;;;6211303;23;20673;-43
2023/11/06 04:27:36;;;;;;;0.88;0.70;;;22.00;39.00;;;;;;6213406;23;20180;-43
2023/11/06 04:30:03;;;;;;;1.75;0.90;;;22.00;39.00;;;;;;6210973;23;20579;-43
2023/11/06 04:32:29;;;;;;;0.80;0.80;;;22.00;39.00;;;;;;6212252;23;20184;-43
2023/11/06 04:34:56;;;;;;;2.17;0.70;;;22.10;39.10;;;;;;6212855;23;20577;-42
2023/11/06 04:37:22;;;;;;;0.82;0.77;;;22.10;39.10;;;;;;6213251;23;20549;-43
2023/11/06 04:39:49;;;;;;;0.70;0.70;;;22.10;39.10;;;;;;6213761;23;20185;-42
2023/11/06 04:42:15;;;;;;;0.70;0.70;;;22.00;39.00;;;;;;6212847;23;20217;-42
2023/11/06 04:44:42;;;;;;;0.80;0.80;;;22.10;39.20;;;;;;6212921;23;20264;-42
2023/11/06 04:47:09;;;;;;;0.70;0.70;;;22.00;39.00;;;;;;6212635;23;20213;-43
2023/11/06 04:49:35;;;;;;;0.77;0.77;;;22.10;39.20;;;;;;6213149;23;20581;-42
2023/11/06 04:52:02;;;;;;;0.85;0.85;;;22.00;39.10;;;;;;6213610;23;20217;-43
2023/11/06 04:54:29;;;;;;;0.88;0.88;;;22.00;39.10;;;;;;6212095;23;20260;-42
2023/11/06 04:56:55;;;;;;;1.85;1.08;;;22.10;39.20;;;;;;6213145;23;20178;-42
2023/11/06 04:59:22;;;;;;;1.45;0.70;;;22.10;39.20;;;;;;6214070;23;20182;-42
2023/11/06 05:01:48;;;;;;;0.73;0.73;;;22.10;39.20;;;;;;6212378;23;20264;-42
2023/11/06 05:04:16;;;;;;;0.88;0.77;;;22.00;39.10;;;;;;6213532;23;20181;-43
2023/11/06 05:06:42;;;;;;;1.02;0.82;;;22.10;39.10;;;;;;6213443;23;20198;-43
2023/11/06 05:09:10;;;;;;;0.95;0.80;;;22.00;39.10;;;;;;6212507;23;20276;-42
2023/11/06 05:11:36;;;;;;;0.85;0.80;;;22.00;39.10;;;;;;6213106;23;20197;-43
2023/11/06 05:14:03;;;;;;;0.80;0.80;;;22.00;39.10;;;;;;6213744;23;20178;-42
2023/11/06 05:16:29;;;;;;;0.95;0.88;;;22.00;39.20;;;;;;6211838;23;20272;-42
2023/11/06 05:18:56;;;;;;;0.73;0.70;;;22.00;39.50;;;;;;6213150;23;20213;-42
2023/11/06 05:21:23;;;;;;;1.40;0.70;;;22.00;39.10;;;;;;6212296;23;20256;-43
2023/11/06 05:23:50;;;;;;;1.02;0.93;;;22.10;39.30;;;;;;6213389;23;20642;-43
2023/11/06 05:26:16;;;;;;;0.98;0.88;;;22.00;39.20;;;;;;6212740;23;20202;-42
2023/11/06 05:28:43;;;;;;;0.82;0.82;;;22.00;39.20;;;;;;6212964;23;20236;-43
2023/11/06 05:31:10;;;;;;;1.00;0.70;;;22.10;39.20;;;;;;6212409;23;20257;-43
2023/11/06 05:33:37;;;;;;;0.80;0.80;;;22.00;39.10;;;;;;6212541;23;20166;-42
2023/11/06 05:36:03;;;;;;;1.08;0.77;;;22.10;39.20;;;;;;6212103;23;20263;-42
2023/11/06 05:38:29;;;;;;;0.80;0.80;;;22.10;39.20;;;;;;6213698;23;20181;-42
2023/11/06 05:40:56;;;;;;;2.05;0.80;;;22.00;39.10;;;;;;6211761;23;20214;-43
2023/11/06 05:43:22;;;;;;;0.80;0.80;;;22.00;39.10;;;;;;6212963;23;20217;-43
2023/11/06 05:45:49;;;;;;;0.77;0.70;;;22.10;39.20;;;;;;6211703;23;20272;-43
2023/11/06 05:48:16;;;;;;;2.13;0.93;;;22.00;39.20;;;;;;6213888;23;20741;-43
2023/11/06 05:50:42;;;;;;;0.93;0.80;;;22.00;39.30;;;;;;6213838;23;20188;-43
2023/11/06 05:53:08;;;;;;;0.80;0.80;;;22.00;39.20;;;;;;6215304;23;20212;-43
2023/11/06 05:55:35;;;;;;;1.15;0.57;;;22.10;39.30;;;;;;6215016;23;20578;-43
2023/11/06 05:58:02;;;;;;;0.70;0.70;;;22.10;39.30;;;;;;6215377;23;20504;-43
2023/11/06 06:00:30;;;;;;;0.80;0.80;;;22.10;39.30;;;;;;6213504;23;20185;-43
2023/11/06 06:02:57;;;;;;;1.15;0.68;;;22.10;39.20;;;;;;6215202;23;20178;-43
2023/11/06 06:05:24;;;;;;;1.75;1.55;;;22.10;39.30;;;;;;6214609;23;20232;-43
2023/11/06 06:07:50;;;;;;;1.80;0.75;;;22.10;39.30;;;;;;6215483;23;20174;-43
2023/11/06 06:10:17;;;;;;;1.30;0.80;;;22.10;39.30;;;;;;6214049;23;20217;-43
2023/11/06 06:12:44;;;;;;;0.82;0.70;;;22.10;39.20;;;;;;6214810;23;20178;-43
2023/11/06 06:15:11;;;;;;;0.77;0.70;;;22.10;39.20;;;;;;6215285;23;20199;-41
2023/11/06 06:17:38;;;;;;;0.80;0.80;;;22.10;39.20;;;;;;6214263;23;20582;-43
2023/11/06 06:20:05;;;;;;;1.08;0.82;;;22.10;39.20;;;;;;6214930;23;20645;-43
2023/11/06 06:22:31;;;;;;;1.73;0.93;;;22.10;39.20;;;;;;6214810;23;20182;-43
2023/11/06 06:24:58;;;;;;;1.35;0.85;;;22.10;39.20;;;;;;6213630;23;20248;-43
2023/11/06 06:27:25;;;;;;;1.23;0.70;;;22.10;39.30;;;;;;6214563;23;20219;-43
2023/11/06 06:29:52;;;;;;;1.17;0.65;;;22.10;39.30;;;;;;6214885;23;20666;-43
2023/11/06 06:32:18;;;;;;;0.70;0.70;;;22.10;39.30;;;;;;6213146;23;20174;-43
2023/11/06 06:34:44;;;;;;;1.77;0.88;;;22.10;39.30;;;;;;6215221;23;20277;-43
2023/11/06 06:37:11;;;;;;;0.70;0.70;;;22.10;39.30;;;;;;6215439;23;20248;-43
2023/11/06 06:39:37;;;;;;;0.82;0.82;;;22.10;39.30;;;;;;6214420;23;20213;-44
2023/11/06 06:42:04;;;;;;;0.95;0.80;;;22.10;39.30;;;;;;6212638;23;20293;-42
2023/11/06 06:44:30;;;;;;;2.40;1.00;;;22.10;39.50;;;;;;6211175;23;20198;-42
2023/11/06 06:46:58;;;;;;;2.78;0.90;;;22.00;39.90;;;;;;6214443;23;20256;-42
2023/11/06 06:49:26;;;;;;;3.30;1.00;;;22.00;40.00;;;;;;6212963;23;20205;-43
2023/11/06 06:51:52;;;;;;;3.28;1.05;;;22.00;40.30;;;;;;6213489;23;20178;-43
2023/11/06 06:54:18;;;;;;;3.63;1.00;;;22.00;40.30;;;;;;6213652;23;20272;-43
2023/11/06 06:56:45;;;;;;;2.38;1.05;;;22.00;40.30;;;;;;6213430;23;20209;-43
2023/11/06 06:59:12;;;;;;;3.70;1.08;;;22.00;40.40;;;;;;6211337;23;20541;-43
2023/11/06 07:01:38;;;;;;;3.85;1.38;;;22.00;40.30;;;;;;6210623;23;20253;-42
2023/11/06 07:04:05;;;;;;;5.95;1.55;;;22.00;40.50;;;;;;6210276;23;20277;-42
2023/11/06 07:06:33;;;;;;;5.10;1.05;;;22.10;40.20;;;;;;6211118;23;20178;-42
2023/11/06 07:08:59;;;;;;;4.97;1.23;;;22.10;40.50;;;;;;6212418;23;20244;-42
2023/11/06 07:11:26;;;;;;;2.08;0.85;;;22.10;40.40;;;;;;6212299;23;20257;-46
2023/11/06 07:13:53;;;;;;;5.85;1.27;;;22.10;40.20;;;;;;6214479;23;20201;-41
2023/11/06 07:16:19;;;;;;;4.40;1.23;;;22.10;40.30;;;;;;6210191;23;20178;-41
2023/11/06 07:18:46;;;;;;;4.38;1.60;;;22.00;40.20;;;;;;6213674;23;20752;-41
2023/11/06 07:21:12;;;;;;;4.25;1.27;;;22.10;40.60;;;;;;6213110;23;20269;-42
2023/11/06 07:23:39;;;;;;;2.38;1.05;;;22.10;40.40;;;;;;6213881;23;20293;-41
2023/11/06 07:26:06;;;;;;;5.22;1.25;;;22.00;40.30;;;;;;6215501;23;20257;-42
2023/11/06 07:28:33;;;;;;;3.25;1.30;;;22.00;40.50;;;;;;6214275;23;20879;-42
2023/11/06 07:30:59;;;;;;;2.78;1.10;;;22.00;40.80;;;;;;6214510;23;20201;-42
2023/11/06 07:33:25;;;;;;;3.30;1.33;;;22.00;41.20;;;;;;6211907;23;20233;-41
2023/11/06 07:35:52;;;;;;;8.25;1.83;;;21.90;41.10;;;;;;6215261;23;20253;-42
2023/11/06 07:38:18;;;;;;;7.22;2.08;;;21.80;39.20;;;;;;6214571;23;20188;-43
2023/11/06 07:40:45;;;;;;;4.80;1.70;;;19.50;39.50;;;;;;6212972;23;20204;-42
2023/11/06 07:43:12;;;;;;;3.75;1.77;;;19.10;39.30;;;;;;6209527;23;20698;-43
2023/11/06 07:45:38;;;;;;;5.60;1.80;;;20.10;39.10;;;;;;6214412;23;20174;-43
2023/11/06 07:48:05;;;;;;;3.13;2.00;;;20.60;39.30;;;;;;6213671;23;20253;-43
2023/11/06 07:50:33;;;;;;;4.97;1.88;;;21.00;40.00;;;;;;6213691;23;20202;-43
2023/11/06 07:52:59;;;;;;;4.50;1.63;;;21.30;40.20;;;;;;6212784;23;20228;-43
2023/11/06 07:55:26;;;;;;;3.55;1.70;;;21.40;40.20;;;;;;6213115;23;20248;-43
2023/11/06 07:57:52;;;;;;;4.85;2.20;;;21.50;40.50;;;;;;6214338;23;20273;-43
2023/11/06 08:00:18;;;;;;;3.58;1.92;;;21.60;40.60;;;;;;6212926;23;20249;-42
2023/11/06 08:02:45;;;;;;;5.32;2.40;;;21.70;40.90;;;;;;6201824;23;20180;-42
2023/11/06 08:05:12;;;;;;;4.45;2.38;;;21.70;40.30;;;;;;6200541;23;20265;-41
2023/11/06 08:07:38;;;;;;;4.72;1.80;;;21.80;39.70;;;;;;6183357;23;20552;-41
2023/11/06 08:10:05;;;;;;;5.50;2.65;;;21.80;40.00;;;;;;6183345;23;20504;-40
2023/11/06 08:12:32;;;;;;;2.80;1.90;;;21.90;41.00;;;;;;6182049;23;20191;-42
2023/11/06 08:14:58;;;;;;;4.53;2.22;;;21.90;41.00;;;;;;6183716;23;20723;-42
2023/11/06 08:17:24;;;;;;;3.38;2.50;;;21.90;41.00;;;;;;6182466;23;20730;-40
2023/11/06 08:19:52;;;;;;;5.13;2.30;;;21.90;41.00;;;;;;6183169;23;20229;-38
2023/11/06 08:22:20;;;;;;;5.10;2.30;;;21.90;40.60;;;;;;6182488;23;20506;-41
2023/11/06 08:24:46;;;;;;;5.15;2.50;;;22.00;41.00;;;;;;6183389;23;20194;-42
2023/11/06 08:27:13;;;;;;;6.13;3.33;;;22.00;41.20;;;;;;6182725;23;20257;-44
2023/11/06 08:29:42;;;;;;;6.32;3.60;;;22.10;42.10;;;;;;6183244;23;20202;-39
2023/11/06 08:32:08;;;;;;;3.80;2.67;;;22.10;42.30;;;;;;6183297;23;20181;-38
2023/11/06 08:34:35;;;;;;;4.50;2.53;;;22.00;42.20;;;;;;6183044;23;20519;-38
2023/11/06 08:37:01;;;;;;;4.57;2.38;;;21.90;42.90;;;;;;6177672;23;20202;-43
2023/11/06 08:39:28;;;;;;;4.03;2.40;;;22.00;42.30;;;;;;6182854;23;20201;-42
2023/11/06 08:41:54;;;;;;;3.65;2.60;;;22.00;42.60;;;;;;6183477;23;20224;-42
2023/11/06 08:44:20;;;;;;;6.05;3.38;;;22.10;42.20;;;;;;6212145;23;20312;-41
2023/11/06 08:46:47;;;;;;;4.00;2.83;;;22.10;42.00;;;;;;6123043;23;20191;-41
2023/11/06 08:49:13;;;;;;;3.42;2.40;;;22.10;42.10;;;;;;6191314;23;20288;-42
2023/11/06 08:51:40;;;;;;;4.35;2.30;;;21.80;41.00;;;;;;6209441;23;20172;-43
2023/11/06 08:54:06;;;;;;;5.68;2.50;;;21.80;40.60;;;;;;6209775;23;20213;-42
2023/11/06 08:56:33;;;;;;;6.80;2.60;;;21.90;40.70;;;;;;6213123;23;20174;-42
2023/11/06 08:58:59;;;;;;;6.25;2.72;;;21.90;38.90;;;;;;6211063;23;20189;-42
2023/11/06 09:01:26;;;;;;;3.00;1.80;;;21.80;37.80;;;;;;6208157;23;20212;-42
2023/11/06 09:03:53;;;;;;;1.80;1.42;;;21.80;36.80;;;;;;6214022;23;20221;-42
2023/11/06 09:06:20;;;;;;;3.17;1.73;;;21.70;35.40;;;;;;6213084;23;20177;-41
2023/11/06 09:08:46;;;;;;;3.58;1.40;;;21.70;35.10;;;;;;6213358;23;20654;-42
2023/11/06 09:11:13;;;;;;;1.50;1.33;;;21.70;34.10;;;;;;6212251;23;20264;-42
2023/11/06 09:13:39;;;;;;;1.83;1.38;;;21.70;34.20;;;;;;6212036;23;20221;-42
2023/11/06 09:16:05;;;;;;;1.67;1.20;;;21.70;34.10;;;;;;6211679;23;20205;-42
2023/11/06 09:18:32;;;;;;;2.72;1.30;;;21.70;33.50;;;;;;6206355;23;20260;-43
2023/11/06 09:20:58;;;;;;;5.45;2.53;;;21.80;34.90;;;;;;6211662;23;20261;-40
2023/11/06 09:23:25;;;;;;;1.90;1.17;;;21.90;36.30;;;;;;6212506;23;20891;-45
2023/11/06 09:25:52;;;;;;;1.85;1.40;;;22.10;37.20;;;;;;6211493;23;20166;-39
2023/11/06 09:28:18;;;;;;;3.03;1.50;;;22.10;37.20;;;;;;6208617;23;20202;-40
2023/11/06 09:30:45;;;;;;;3.38;1.38;;;22.10;37.00;;;;;;6212119;23;20280;-40
2023/11/06 09:33:11;;;;;;;3.05;1.30;;;22.10;37.40;;;;;;6213695;23;20272;-39
2023/11/06 09:35:37;;;;;;;2.60;1.25;;;22.10;37.80;;;;;;6214561;23;20205;-39
2023/11/06 09:38:04;;;;;;;1.85;1.45;;;22.00;37.80;;;;;;6213116;23;20220;-39
2023/11/06 09:40:31;;;;;;;2.67;1.42;;;22.00;37.90;;;;;;6213774;23;20181;-39
2023/11/06 09:42:57;;;;;;;2.38;1.30;;;22.10;38.10;;;;;;6210403;23;20733;-39
2023/11/06 09:45:23;;;;;;;1.30;1.00;;;22.10;38.10;;;;;;6213651;23;20627;-38
2023/11/06 09:47:51;;;;;;;1.00;0.90;;;22.10;38.20;;;;;;6214110;23;20201;-37
2023/11/06 09:50:18;;;;;;;1.13;1.02;;;22.10;38.30;;;;;;6212650;23;20212;-39
2023/11/06 09:52:45;;;;;;;0.90;0.80;;;22.10;38.40;;;;;;6211303;23;20674;-39
2023/11/06 09:55:13;;;;;;;1.65;1.25;;;22.10;38.60;;;;;;6209952;23;20206;-41
2023/11/06 09:57:39;;;;;;;1.90;1.00;;;22.10;38.40;;;;;;6206462;23;20253;-41
2023/11/06 10:00:09;;;;;;;1.65;1.13;;;22.10;38.60;;;;;;6213271;23;20249;-41
2023/11/06 10:02:35;;;;;;;1.38;1.02;;;22.10;38.90;;;;;;6211707;23;20574;-38
2023/11/06 10:05:02;;;;;;;1.30;1.20;;;22.20;38.80;;;;;;6213531;23;20201;-38
2023/11/06 10:07:29;;;;;;;1.55;1.02;;;22.20;39.10;;;;;;6213000;23;20228;-38
2023/11/06 10:09:55;;;;;;;1.33;0.93;;;22.20;39.40;;;;;;6201557;23;20292;-46
2023/11/06 10:12:22;;;;;;;1.13;0.95;;;22.20;38.90;;;;;;6200487;23;20197;-40
2023/11/06 10:14:48;;;;;;;1.02;0.90;;;22.30;38.90;;;;;;6211976;23;20261;-40
2023/11/06 10:17:16;;;;;;;1.10;1.00;;;22.30;38.80;;;;;;6211390;23;20261;-38
2023/11/06 10:19:43;;;;;;;1.10;1.00;;;22.30;38.90;;;;;;6213289;23;20253;-40
2023/11/06 10:22:10;;;;;;;1.42;1.00;;;22.40;38.90;;;;;;6211791;23;20202;-38
2023/11/06 10:24:36;;;;;;;1.20;0.95;;;22.40;38.40;;;;;;6212448;23;20213;-38
2023/11/06 10:27:03;;;;;;;1.02;0.90;;;22.40;38.60;;;;;;6212809;23;20260;-38
2023/11/06 10:29:30;;;;;;;1.27;1.10;;;22.40;38.70;;;;;;6210958;23;20248;-41
2023/11/06 10:31:57;;;;;;;1.52;1.02;;;22.30;38.50;;;;;;6210898;23;20194;-41
2023/11/06 10:34:23;;;;;;;1.30;1.00;;;22.20;37.30;;;;;;6208934;23;20174;-37
2023/11/06 10:36:49;;;;;;;0.95;0.88;;;22.20;37.70;;;;;;6210119;23;20188;-37
2023/11/06 10:39:18;;;;;;;0.80;0.80;;;22.20;37.90;;;;;;6213679;23;20213;-37
2023/11/06 10:41:45;;;;;;;1.17;1.08;;;22.20;38.00;;;;;;6213123;23;20670;-38
2023/11/06 10:44:11;;;;;;;1.05;0.98;;;22.20;38.10;;;;;;6213362;23;20283;-37
2023/11/06 10:46:37;;;;;;;1.23;1.00;;;22.30;38.30;;;;;;6211217;23;20281;-37
2023/11/06 10:49:04;;;;;;;1.50;0.90;;;22.30;37.90;;;;;;6214376;23;20257;-37
2023/11/06 10:51:31;;;;;;;1.13;1.02;;;22.30;37.90;;;;;;6214897;23;20271;-41
2023/11/06 10:53:59;;;;;;;0.90;0.80;;;22.40;38.00;;;;;;6215047;23;20182;-38
2023/11/06 10:56:25;;;;;;;0.70;0.70;;;22.30;38.00;;;;;;6214383;23;20177;-37
2023/11/06 10:58:51;;;;;;;0.80;0.80;;;22.40;38.00;;;;;;6215950;23;20256;-37
2023/11/06 11:01:18;;;;;;;1.13;1.00;;;22.40;37.80;;;;;;6211257;23;20233;-37
2023/11/06 11:03:44;;;;;;;0.80;0.80;;;22.30;37.90;;;;;;6209558;23;20188;-37
2023/11/06 11:06:11;;;;;;;1.23;0.90;;;22.30;38.00;;;;;;6214988;23;20220;-37
2023/11/06 11:08:37;;;;;;;1.95;1.30;;;22.30;38.10;;;;;;6213033;23;20196;-37
2023/11/06 11:11:05;;;;;;;1.17;0.88;;;22.30;38.20;;;;;;6212596;23;20296;-37
2023/11/06 11:13:32;;;;;;;1.10;1.00;;;22.30;38.30;;;;;;6213998;23;20184;-37
2023/11/06 11:15:58;;;;;;;2.45;1.02;;;22.30;38.10;;;;;;6213988;23;20210;-32
2023/11/06 11:18:25;;;;;;;1.13;1.00;;;22.30;38.20;;;;;;6214456;23;20216;-34
2023/11/06 11:20:51;;;;;;;2.03;1.00;;;22.40;38.30;;;;;;6212866;23;20570;-38
2023/11/06 11:23:18;;;;;;;1.42;0.73;;;22.40;38.30;;;;;;6211023;23;20174;-40
2023/11/06 11:25:45;;;;;;;1.13;0.77;;;22.40;38.20;;;;;;6212903;23;20645;-39
2023/11/06 11:28:12;;;;;;;1.95;0.98;;;22.40;38.20;;;;;;6214732;23;20205;-39
2023/11/06 11:30:39;;;;;;;1.52;0.70;;;22.40;38.40;;;;;;6214187;23;20213;-39
2023/11/06 11:33:05;;;;;;;0.73;0.73;;;22.40;38.40;;;;;;6214519;23;20174;-40
2023/11/06 11:35:31;;;;;;;1.17;0.80;;;22.40;38.50;;;;;;6214846;23;20217;-39
2023/11/06 11:37:58;;;;;;;1.17;1.00;;;22.40;38.50;;;;;;6214539;23;20178;-39
2023/11/06 11:40:24;;;;;;;0.80;0.80;;;22.40;38.50;;;;;;6208801;23;20252;-39
2023/11/06 11:42:51;;;;;;;0.88;0.88;;;22.30;38.50;;;;;;6213735;23;20674;-39
2023/11/06 11:45:17;;;;;;;0.90;0.90;;;22.30;38.50;;;;;;6212822;23;20619;-39
2023/11/06 11:47:44;;;;;;;0.68;0.65;;;22.30;38.60;;;;;;6211855;23;20185;-39
2023/11/06 11:50:09;;;;;;;0.80;0.80;;;22.40;38.70;;;;;;6213116;23;20241;-38
2023/11/06 11:52:35;;;;;;;0.93;0.80;;;22.30;38.70;;;;;;6213781;23;20178;-39
2023/11/06 11:55:02;;;;;;;0.95;0.90;;;22.30;38.70;;;;;;6213031;23;20253;-39
2023/11/06 11:57:28;;;;;;;0.77;0.73;;;22.30;38.70;;;;;;6214116;23;20249;-39
2023/11/06 11:59:55;;;;;;;1.10;0.90;;;22.40;38.80;;;;;;6214565;23;20178;-39
2023/11/06 12:02:22;;;;;;;1.65;0.80;;;22.30;38.70;;;;;;6213121;23;20198;-39
2023/11/06 12:04:49;;;;;;;0.60;0.60;;;22.30;38.80;;;;;;6215156;23;20174;-39
2023/11/06 12:07:16;;;;;;;0.70;0.70;;;22.30;38.80;;;;;;6214226;23;20216;-40
2023/11/06 12:09:42;;;;;;;0.75;0.70;;;22.30;38.80;;;;;;6214460;23;20642;-39
2023/11/06 12:12:09;;;;;;;1.33;0.77;;;22.30;38.80;;;;;;6210700;23;20580;-38
2023/11/06 12:14:38;;;;;;;1.00;0.95;;;22.30;38.80;;;;;;6215059;23;20201;-39
2023/11/06 12:17:05;;;;;;;1.10;0.88;;;22.30;38.90;;;;;;6214370;23;20235;-40
2023/11/06 12:19:31;;;;;;;1.15;0.82;;;22.30;38.90;;;;;;6214614;23;20189;-39
2023/11/06 12:21:58;;;;;;;1.42;0.80;;;22.30;38.90;;;;;;6213706;23;20586;-39
2023/11/06 12:24:24;;;;;;;1.27;0.82;;;22.20;38.90;;;;;;6214890;23;20228;-39
2023/11/06 12:26:51;;;;;;;0.70;0.70;;;22.20;38.90;;;;;;6214211;23;20248;-40
2023/11/06 12:29:17;;;;;;;0.93;0.85;;;22.30;38.90;;;;;;6214353;23;20174;-39
2023/11/06 12:31:45;;;;;;;0.80;0.80;;;22.30;38.90;;;;;;6213421;23;20240;-39
2023/11/06 12:34:11;;;;;;;1.00;0.90;;;22.20;38.90;;;;;;6213985;23;20201;-38
2023/11/06 12:36:39;;;;;;;0.88;0.88;;;22.30;39.00;;;;;;6213918;23;20694;-40
2023/11/06 12:39:07;;;;;;;0.82;0.70;;;22.20;38.90;;;;;;6214283;23;20174;-40
2023/11/06 12:41:38;;;;;;;0.60;0.60;;;22.30;38.90;;;;;;6213921;23;20225;-40
2023/11/06 12:44:08;;;;;;;1.45;0.80;;;22.30;38.90;;;;;;6214312;23;20615;-39